createdAt,value
2023-03-22T00:00:33.698Z,8.87
2023-03-22T00:01:35.321Z,8.85
2023-03-22T00:02:37.156Z,8.83
2023-03-22T00:03:39.187Z,8.72
2023-03-22T00:04:42.561Z,8.64
2023-03-22T00:05:44.605Z,8.81
2023-03-22T00:06:46.193Z,8.81
2023-03-22T00:07:48.081Z,8.79
2023-03-22T00:08:51.633Z,8.78
2023-03-22T00:09:53.238Z,8.76
2023-03-22T00:10:54.799Z,8.64
2023-03-22T00:11:56.402Z,8.55
2023-03-22T00:12:58.041Z,8.55
2023-03-22T00:13:59.631Z,8.56
2023-03-22T00:15:01.262Z,8.51
2023-03-22T00:16:04.354Z,8.47
2023-03-22T00:17:05.973Z,8.35
2023-03-22T00:18:07.798Z,8.38
2023-03-22T00:19:09.364Z,8.31
2023-03-22T00:20:11.758Z,8.34
2023-03-22T00:21:15.815Z,8.32
2023-03-22T00:22:17.413Z,8.23
2023-03-22T00:23:19.519Z,8.23
2023-03-22T00:24:21.660Z,8.22
2023-03-22T00:25:23.619Z,8.23
2023-03-22T00:26:25.161Z,8.24
2023-03-22T00:27:26.740Z,8.22
2023-03-22T00:28:28.471Z,8.18
2023-03-22T00:29:30.024Z,8.12
2023-03-22T00:30:31.581Z,8.15
2023-03-22T00:31:33.230Z,8.12
2023-03-22T00:32:38.678Z,8.10
2023-03-22T00:33:40.537Z,8.10
2023-03-22T00:34:42.087Z,8.02
2023-03-22T00:36:02.525Z,8.02
2023-03-22T00:37:04.664Z,7.98
2023-03-22T00:38:06.232Z,7.97
2023-03-22T00:39:07.790Z,7.93
2023-03-22T00:40:12.689Z,7.99
2023-03-22T00:41:17.587Z,8.07
2023-03-22T00:42:19.367Z,8.11
2023-03-22T00:43:20.933Z,8.12
2023-03-22T00:44:22.496Z,8.15
2023-03-22T00:45:24.117Z,8.18
2023-03-22T00:46:25.763Z,8.23
2023-03-22T00:47:27.626Z,8.25
2023-03-22T00:48:29.359Z,8.27
2023-03-22T00:49:30.888Z,8.26
2023-03-22T00:50:32.432Z,8.28
2023-03-22T00:51:34.041Z,8.21
2023-03-22T00:52:35.785Z,8.26
2023-03-22T00:53:38.921Z,8.28
2023-03-22T00:54:42.140Z,8.37
2023-03-22T00:55:43.733Z,8.29
2023-03-22T00:56:45.509Z,8.24
2023-03-22T00:57:47.249Z,8.27
2023-03-22T00:58:48.866Z,8.35
2023-03-22T00:59:50.721Z,8.22
2023-03-22T01:00:52.370Z,8.24
2023-03-22T01:01:54.317Z,8.25
2023-03-22T01:02:56.169Z,8.34
2023-03-22T01:03:57.814Z,8.29
2023-03-22T01:04:59.352Z,8.26
2023-03-22T01:06:00.906Z,8.26
2023-03-22T01:07:02.977Z,8.29
2023-03-22T01:08:05.421Z,8.25
2023-03-22T01:09:07.010Z,8.25
2023-03-22T01:10:09.963Z,8.21
2023-03-22T01:11:11.833Z,8.16
2023-03-22T01:12:14.600Z,8.16
2023-03-22T01:13:18.037Z,8.13
2023-03-22T01:14:19.772Z,8.12
2023-03-22T01:15:21.329Z,8.09
2023-03-22T01:16:22.909Z,8.09
2023-03-22T01:17:24.500Z,8.04
2023-03-22T01:18:26.403Z,8.03
2023-03-22T01:19:28.005Z,8.03
2023-03-22T01:20:30.004Z,8.03
2023-03-22T01:21:31.588Z,7.99
2023-03-22T01:22:33.150Z,7.97
2023-03-22T01:23:35.060Z,7.96
2023-03-22T01:24:36.641Z,7.97
2023-03-22T01:25:38.239Z,7.85
2023-03-22T01:26:39.892Z,7.80
2023-03-22T01:27:41.504Z,7.87
2023-03-22T01:28:43.133Z,7.72
2023-03-22T01:29:44.819Z,7.64
2023-03-22T01:30:46.427Z,7.65
2023-03-22T01:31:48.037Z,7.67
2023-03-22T01:32:49.720Z,7.69
2023-03-22T01:33:51.515Z,7.72
2023-03-22T01:34:53.097Z,7.75
2023-03-22T01:35:54.768Z,7.61
2023-03-22T01:36:56.360Z,7.61
2023-03-22T01:37:57.904Z,7.56
2023-03-22T01:38:59.735Z,7.51
2023-03-22T01:40:01.299Z,7.47
2023-03-22T01:41:03.105Z,7.43
2023-03-22T01:42:04.835Z,7.44
2023-03-22T01:43:14.064Z,7.38
2023-03-22T01:44:15.547Z,7.32
2023-03-22T01:45:22.910Z,7.32
2023-03-22T01:46:24.474Z,7.34
2023-03-22T01:47:26.110Z,7.36
2023-03-22T01:48:36.562Z,7.33
2023-03-22T01:49:40.052Z,7.29
2023-03-22T01:50:48.570Z,7.27
2023-03-22T01:51:55.753Z,7.21
2023-03-22T01:52:59.122Z,7.17
2023-03-22T01:54:06.076Z,7.11
2023-03-22T01:55:08.879Z,7.14
2023-03-22T01:56:11.861Z,7.03
2023-03-22T01:57:13.942Z,7.01
2023-03-22T01:58:17.287Z,7.01
2023-03-22T01:59:19.648Z,7.04
2023-03-22T02:00:21.805Z,7.07
2023-03-22T02:01:24.880Z,7.07
2023-03-22T02:02:26.864Z,7.12
2023-03-22T02:03:49.732Z,7.07
2023-03-22T02:04:51.658Z,7.16
2023-03-22T02:05:54.247Z,7.24
2023-03-22T02:06:55.886Z,7.32
2023-03-22T02:07:57.415Z,7.27
2023-03-22T02:08:59.252Z,7.20
2023-03-22T02:10:00.999Z,7.05
2023-03-22T02:11:04.361Z,6.94
2023-03-22T02:12:23.332Z,7.03
2023-03-22T02:13:51.686Z,6.98
2023-03-22T02:15:28.690Z,6.82
2023-03-22T02:16:48.745Z,6.72
2023-03-22T02:18:21.907Z,6.62
2023-03-22T02:19:42.115Z,6.54
2023-03-22T02:21:04.943Z,6.57
2023-03-22T02:22:28.309Z,6.48
2023-03-22T02:23:48.687Z,6.60
2023-03-22T02:24:59.409Z,6.64
2023-03-22T02:26:36.152Z,6.61
2023-03-22T02:27:52.711Z,6.64
2023-03-22T02:28:57.299Z,6.58
2023-03-22T02:30:39.510Z,6.56
2023-03-22T02:31:41.321Z,6.56
2023-03-22T02:33:20.545Z,6.52
2023-03-22T02:34:40.117Z,6.50
2023-03-22T02:35:53.750Z,6.47
2023-03-22T02:37:07.967Z,6.54
2023-03-22T02:38:31.355Z,6.47
2023-03-22T02:39:35.852Z,6.50
2023-03-22T02:40:50.330Z,6.43
2023-03-22T02:42:09.692Z,6.46
2023-03-22T02:43:17.414Z,6.42
2023-03-22T02:44:40.373Z,6.37
2023-03-22T02:46:09.063Z,6.39
2023-03-22T02:47:23.156Z,6.27
2023-03-22T02:48:38.893Z,6.23
2023-03-22T02:49:52.328Z,6.27
2023-03-22T02:50:59.862Z,6.10
2023-03-22T02:52:25.698Z,6.09
2023-03-22T02:53:47.942Z,6.10
2023-03-22T02:54:56.368Z,6.11
2023-03-22T02:56:07.997Z,6.11
2023-03-22T02:57:37.937Z,6.10
2023-03-22T02:58:45.009Z,6.13
2023-03-22T02:59:48.620Z,6.11
2023-03-22T03:00:56.458Z,6.11
2023-03-22T03:02:03.223Z,6.12
2023-03-22T03:03:12.565Z,6.12
2023-03-22T03:04:22.128Z,6.08
2023-03-22T03:05:26.934Z,6.12
2023-03-22T03:06:34.260Z,6.11
2023-03-22T03:07:37.956Z,6.12
2023-03-22T03:08:41.105Z,6.11
2023-03-22T03:09:43.619Z,5.98
2023-03-22T03:10:47.266Z,6.07
2023-03-22T03:11:52.009Z,6.14
2023-03-22T03:12:53.535Z,6.11
2023-03-22T03:13:55.218Z,6.02
2023-03-22T03:14:57.137Z,5.94
2023-03-22T03:16:01.101Z,5.99
2023-03-22T03:17:09.577Z,6.03
2023-03-22T03:18:27.258Z,6.07
2023-03-22T03:19:39.278Z,6.07
2023-03-22T03:21:19.235Z,6.08
2023-03-22T03:22:52.793Z,6.07
2023-03-22T03:24:02.409Z,6.05
2023-03-22T03:25:17.052Z,6.02
2023-03-22T03:26:38.180Z,5.97
2023-03-22T03:27:54.592Z,6.04
2023-03-22T03:29:05.426Z,6.06
2023-03-22T03:30:16.224Z,6.12
2023-03-22T03:31:35.673Z,6.11
2023-03-22T03:32:52.422Z,6.03
2023-03-22T03:34:12.848Z,6.14
2023-03-22T03:35:25.628Z,6.13
2023-03-22T03:36:31.744Z,6.18
2023-03-22T03:37:43.301Z,6.23
2023-03-22T03:38:50.918Z,6.28
2023-03-22T03:40:03.656Z,6.30
2023-03-22T03:41:11.433Z,6.39
2023-03-22T03:42:16.411Z,6.30
2023-03-22T03:43:19.520Z,6.32
2023-03-22T03:44:21.553Z,6.32
2023-03-22T03:45:23.758Z,6.37
2023-03-22T03:46:25.300Z,6.40
2023-03-22T03:47:28.717Z,6.34
2023-03-22T03:48:33.674Z,6.44
2023-03-22T03:49:35.430Z,6.50
2023-03-22T03:50:37.347Z,6.49
2023-03-22T03:51:48.471Z,6.56
2023-03-22T03:52:52.040Z,6.57
2023-03-22T03:53:53.722Z,6.61
2023-03-22T03:54:55.469Z,6.64
2023-03-22T03:55:57.382Z,6.64
2023-03-22T03:56:59.037Z,6.65
2023-03-22T03:58:00.700Z,6.64
2023-03-22T03:59:02.314Z,6.69
2023-03-22T04:00:05.677Z,6.73
2023-03-22T04:01:07.559Z,6.79
2023-03-22T04:02:09.152Z,6.75
2023-03-22T04:03:10.811Z,6.75
2023-03-22T04:04:12.621Z,6.70
2023-03-22T04:05:14.972Z,6.73
2023-03-22T04:06:16.540Z,6.75
2023-03-22T04:07:18.097Z,6.79
2023-03-22T04:08:19.694Z,6.81
2023-03-22T04:09:21.445Z,6.74
2023-03-22T04:10:23.149Z,6.81
2023-03-22T04:11:24.772Z,6.80
2023-03-22T04:12:26.342Z,6.85
2023-03-22T04:13:27.921Z,6.86
2023-03-22T04:14:29.825Z,6.87
2023-03-22T04:15:31.394Z,6.90
2023-03-22T04:16:33.000Z,6.90
2023-03-22T04:17:34.641Z,6.89
2023-03-22T04:18:36.224Z,6.94
2023-03-22T04:19:37.816Z,6.99
2023-03-22T04:20:40.465Z,6.93
2023-03-22T04:21:42.620Z,6.97
2023-03-22T04:22:44.191Z,6.95
2023-03-22T04:23:45.767Z,6.95
2023-03-22T04:24:47.634Z,6.97
2023-03-22T04:25:49.633Z,6.96
2023-03-22T04:26:51.172Z,6.97
2023-03-22T04:27:52.705Z,6.96
2023-03-22T04:28:54.572Z,6.94
2023-03-22T04:29:56.315Z,6.95
2023-03-22T04:30:57.933Z,6.95
2023-03-22T04:31:59.518Z,6.79
2023-03-22T04:33:01.075Z,6.87
2023-03-22T04:34:02.948Z,6.76
2023-03-22T04:35:05.523Z,6.70
2023-03-22T04:36:08.299Z,6.71
2023-03-22T04:37:09.857Z,6.76
2023-03-22T04:38:11.560Z,6.74
2023-03-22T04:39:13.129Z,6.69
2023-03-22T04:40:15.681Z,6.70
2023-03-22T04:41:18.422Z,6.68
2023-03-22T04:42:22.730Z,6.73
2023-03-22T04:43:24.300Z,6.78
2023-03-22T04:44:25.985Z,6.74
2023-03-22T04:45:27.729Z,6.74
2023-03-22T04:46:34.420Z,6.75
2023-03-22T04:47:36.765Z,6.75
2023-03-22T04:48:40.587Z,6.60
2023-03-22T04:49:42.168Z,6.60
2023-03-22T04:50:43.893Z,6.64
2023-03-22T04:51:45.467Z,6.70
2023-03-22T04:52:47.029Z,6.70
2023-03-22T04:53:48.681Z,6.67
2023-03-22T04:54:50.274Z,6.64
2023-03-22T04:55:51.854Z,6.69
2023-03-22T04:56:53.395Z,6.73
2023-03-22T04:57:54.976Z,6.82
2023-03-22T04:58:56.502Z,6.86
2023-03-22T04:59:58.087Z,6.90
2023-03-22T05:00:59.702Z,6.67
2023-03-22T05:02:01.319Z,6.74
2023-03-22T05:03:03.351Z,6.63
2023-03-22T05:04:04.958Z,6.79
2023-03-22T05:05:07.446Z,6.81
2023-03-22T05:06:09.737Z,6.77
2023-03-22T05:07:11.297Z,6.78
2023-03-22T05:08:12.817Z,6.75
2023-03-22T05:09:14.723Z,6.74
2023-03-22T05:10:16.356Z,6.85
2023-03-22T05:11:18.602Z,6.85
2023-03-22T05:12:20.161Z,6.78
2023-03-22T05:13:23.541Z,6.82
2023-03-22T05:14:25.211Z,6.92
2023-03-22T05:15:26.850Z,6.96
2023-03-22T05:16:28.585Z,6.88
2023-03-22T05:17:30.162Z,6.98
2023-03-22T05:18:32.059Z,6.97
2023-03-22T05:19:33.712Z,7.08
2023-03-22T05:20:35.399Z,7.07
2023-03-22T05:21:37.131Z,7.10
2023-03-22T05:22:38.865Z,7.20
2023-03-22T05:23:40.425Z,7.23
2023-03-22T05:24:41.992Z,7.34
2023-03-22T05:25:43.588Z,7.38
2023-03-22T05:26:45.269Z,7.48
2023-03-22T05:27:46.832Z,7.50
2023-03-22T05:28:48.408Z,7.50
2023-03-22T05:29:49.976Z,7.48
2023-03-22T05:30:51.562Z,7.45
2023-03-22T05:31:53.297Z,7.44
2023-03-22T05:33:04.961Z,7.46
2023-03-22T05:34:06.522Z,7.50
2023-03-22T05:35:08.358Z,7.53
2023-03-22T05:36:10.853Z,7.56
2023-03-22T05:37:12.585Z,7.56
2023-03-22T05:38:14.162Z,7.59
2023-03-22T05:39:15.706Z,7.64
2023-03-22T05:40:17.397Z,7.62
2023-03-22T05:41:19.009Z,7.65
2023-03-22T05:42:20.841Z,7.63
2023-03-22T05:43:22.409Z,7.67
2023-03-22T05:44:23.960Z,7.78
2023-03-22T05:45:26.629Z,7.80
2023-03-22T05:46:28.292Z,7.86
2023-03-22T05:47:30.044Z,7.80
2023-03-22T05:48:31.692Z,7.73
2023-03-22T05:49:33.272Z,7.83
2023-03-22T05:50:35.044Z,7.81
2023-03-22T05:51:36.593Z,7.79
2023-03-22T05:52:38.266Z,7.78
2023-03-22T05:53:39.826Z,7.86
2023-03-22T05:54:41.445Z,7.88
2023-03-22T05:55:43.007Z,7.95
2023-03-22T05:56:44.593Z,8.05
2023-03-22T05:57:46.857Z,8.04
2023-03-22T05:58:48.404Z,8.11
2023-03-22T05:59:50.062Z,8.04
2023-03-22T06:00:51.630Z,8.09
2023-03-22T06:01:53.378Z,8.21
2023-03-22T06:02:55.110Z,8.30
2023-03-22T06:03:56.694Z,8.29
2023-03-22T06:04:58.245Z,8.40
2023-03-22T06:05:59.797Z,8.53
2023-03-22T06:07:01.364Z,8.65
2023-03-22T06:08:04.060Z,8.71
2023-03-22T06:09:16.549Z,8.74
2023-03-22T06:10:19.113Z,8.87
2023-03-22T06:11:20.644Z,9.00
2023-03-22T06:12:22.324Z,9.06
2023-03-22T06:13:24.137Z,9.15
2023-03-22T06:14:25.722Z,9.23
2023-03-22T06:15:27.296Z,9.37
2023-03-22T06:16:28.941Z,9.39
2023-03-22T06:17:30.676Z,9.44
2023-03-22T06:18:32.637Z,9.51
2023-03-22T06:19:34.302Z,9.55
2023-03-22T06:20:35.870Z,9.55
2023-03-22T06:21:37.436Z,9.59
2023-03-22T06:22:39.347Z,9.66
2023-03-22T06:23:40.916Z,9.69
2023-03-22T06:24:42.774Z,9.74
2023-03-22T06:25:45.172Z,9.79
2023-03-22T06:26:46.741Z,9.86
2023-03-22T06:27:48.814Z,9.86
2023-03-22T06:28:50.484Z,9.97
2023-03-22T06:29:52.013Z,10.09
2023-03-22T06:30:53.621Z,10.19
2023-03-22T06:31:55.191Z,10.25
2023-03-22T06:32:57.187Z,10.25
2023-03-22T06:33:58.816Z,10.32
2023-03-22T06:35:00.405Z,10.34
2023-03-22T06:36:02.529Z,10.38
2023-03-22T06:37:04.426Z,10.41
2023-03-22T06:38:06.018Z,10.46
2023-03-22T06:39:07.852Z,10.48
2023-03-22T06:40:10.012Z,10.55
2023-03-22T06:41:11.932Z,10.57
2023-03-22T06:42:13.476Z,10.59
2023-03-22T06:43:15.051Z,10.61
2023-03-22T06:44:16.801Z,10.64
2023-03-22T06:45:18.369Z,10.68
2023-03-22T06:46:20.119Z,10.76
2023-03-22T06:47:21.665Z,10.77
2023-03-22T06:48:23.653Z,10.75
2023-03-22T06:49:25.404Z,10.87
2023-03-22T06:50:27.673Z,10.98
2023-03-22T06:51:29.256Z,11.00
2023-03-22T06:52:30.825Z,11.09
2023-03-22T06:53:32.431Z,11.24
2023-03-22T06:54:34.131Z,11.22
2023-03-22T06:55:35.852Z,11.24
2023-03-22T06:56:37.440Z,11.37
2023-03-22T06:57:39.010Z,11.54
2023-03-22T06:58:40.578Z,11.54
2023-03-22T06:59:45.093Z,11.60
2023-03-22T07:00:46.641Z,11.67
2023-03-22T07:01:48.240Z,11.75
2023-03-22T07:02:52.579Z,11.67
2023-03-22T07:03:54.321Z,11.63
2023-03-22T07:04:55.892Z,11.71
2023-03-22T07:06:01.691Z,11.80
2023-03-22T07:07:03.283Z,11.82
2023-03-22T07:08:04.882Z,11.83
2023-03-22T07:09:06.486Z,11.89
2023-03-22T07:10:08.605Z,11.98
2023-03-22T07:11:10.157Z,12.16
2023-03-22T07:12:11.746Z,12.31
2023-03-22T07:13:13.555Z,12.36
2023-03-22T07:14:15.159Z,12.51
2023-03-22T07:15:16.843Z,12.70
2023-03-22T07:16:20.131Z,12.90
2023-03-22T07:17:21.813Z,13.11
2023-03-22T07:18:24.077Z,13.38
2023-03-22T07:19:25.852Z,13.48
2023-03-22T07:20:28.767Z,13.56
2023-03-22T07:21:30.343Z,13.49
2023-03-22T07:22:31.934Z,13.43
2023-03-22T07:23:33.512Z,13.43
2023-03-22T07:24:37.197Z,13.38
2023-03-22T07:25:43.257Z,13.45
2023-03-22T07:26:44.813Z,13.61
2023-03-22T07:27:46.375Z,13.70
2023-03-22T07:28:48.032Z,13.74
2023-03-22T07:29:49.596Z,13.76
2023-03-22T07:31:02.862Z,13.76
2023-03-22T07:32:04.713Z,13.81
2023-03-22T07:33:08.214Z,13.84
2023-03-22T07:34:09.796Z,13.81
2023-03-22T07:35:11.364Z,13.87
2023-03-22T07:36:13.076Z,13.95
2023-03-22T07:37:14.628Z,13.88
2023-03-22T07:38:16.170Z,13.96
2023-03-22T07:39:17.727Z,13.95
2023-03-22T07:40:19.552Z,13.99
2023-03-22T07:41:21.205Z,13.87
2023-03-22T07:42:22.772Z,13.89
2023-03-22T07:43:24.577Z,13.62
2023-03-22T07:44:26.842Z,13.58
2023-03-22T07:45:28.752Z,13.57
2023-03-22T07:46:30.624Z,13.55
2023-03-22T07:47:40.845Z,13.60
2023-03-22T07:48:43.135Z,13.60
2023-03-22T07:49:44.694Z,13.66
2023-03-22T07:50:46.864Z,13.55
2023-03-22T07:51:48.595Z,13.61
2023-03-22T07:52:50.202Z,13.70
2023-03-22T07:53:51.786Z,13.69
2023-03-22T07:54:53.364Z,13.59
2023-03-22T07:55:55.066Z,13.60
2023-03-22T07:56:56.814Z,13.43
2023-03-22T07:57:58.504Z,13.39
2023-03-22T07:59:00.079Z,13.45
2023-03-22T08:00:01.784Z,13.46
2023-03-22T08:01:07.600Z,13.51
2023-03-22T08:02:12.954Z,13.48
2023-03-22T08:03:14.652Z,13.45
2023-03-22T08:04:16.301Z,13.50
2023-03-22T08:05:18.009Z,13.45
2023-03-22T08:06:20.025Z,13.42
2023-03-22T08:07:21.611Z,13.43
2023-03-22T08:08:23.512Z,13.41
2023-03-22T08:09:26.202Z,13.49
2023-03-22T08:10:27.867Z,13.38
2023-03-22T08:11:30.021Z,13.40
2023-03-22T08:12:31.625Z,13.48
2023-03-22T08:13:33.662Z,13.46
2023-03-22T08:14:36.814Z,13.57
2023-03-22T08:15:39.109Z,13.61
2023-03-22T08:16:40.834Z,13.60
2023-03-22T08:17:42.434Z,13.49
2023-03-22T08:18:45.425Z,13.60
2023-03-22T08:19:47.228Z,13.51
2023-03-22T08:20:56.529Z,13.51
2023-03-22T08:21:58.324Z,13.28
2023-03-22T08:22:59.970Z,13.40
2023-03-22T08:24:01.742Z,13.43
2023-03-22T08:25:04.505Z,13.47
2023-03-22T08:26:06.411Z,13.45
2023-03-22T08:27:08.199Z,13.53
2023-03-22T08:28:10.496Z,13.52
2023-03-22T08:29:12.109Z,13.68
2023-03-22T08:30:14.773Z,13.82
2023-03-22T08:31:17.887Z,13.87
2023-03-22T08:32:19.662Z,13.77
2023-03-22T08:33:21.433Z,13.87
2023-03-22T08:34:23.052Z,14.05
2023-03-22T08:35:24.671Z,14.19
2023-03-22T08:36:26.260Z,14.30
2023-03-22T08:37:27.882Z,14.43
2023-03-22T08:38:29.422Z,14.51
2023-03-22T08:39:31.096Z,14.42
2023-03-22T08:40:33.007Z,14.13
2023-03-22T08:41:35.268Z,14.29
2023-03-22T08:42:36.845Z,14.39
2023-03-22T08:43:38.651Z,14.45
2023-03-22T08:44:40.327Z,14.26
2023-03-22T08:45:42.280Z,14.39
2023-03-22T08:46:44.105Z,14.57
2023-03-22T08:47:45.730Z,14.67
2023-03-22T08:48:47.545Z,14.64
2023-03-22T08:49:49.121Z,14.82
2023-03-22T08:50:50.680Z,14.95
2023-03-22T08:51:52.228Z,15.03
2023-03-22T08:52:53.882Z,15.14
2023-03-22T08:53:55.511Z,15.12
2023-03-22T08:54:57.092Z,15.09
2023-03-22T08:55:58.638Z,14.90
2023-03-22T08:57:00.205Z,14.75
2023-03-22T08:58:01.956Z,14.92
2023-03-22T08:59:09.070Z,14.75
2023-03-22T09:00:12.999Z,14.75
2023-03-22T09:01:16.283Z,14.97
2023-03-22T09:02:18.015Z,15.07
2023-03-22T09:03:19.828Z,15.30
2023-03-22T09:04:21.791Z,15.36
2023-03-22T09:05:23.406Z,15.37
2023-03-22T09:06:25.140Z,15.40
2023-03-22T09:07:27.875Z,15.59
2023-03-22T09:08:29.442Z,15.60
2023-03-22T09:09:31.138Z,15.42
2023-03-22T09:10:32.945Z,15.68
2023-03-22T09:11:34.506Z,15.71
2023-03-22T09:12:36.241Z,15.68
2023-03-22T09:13:38.151Z,15.86
2023-03-22T09:14:40.104Z,15.64
2023-03-22T09:15:41.962Z,15.56
2023-03-22T09:16:43.703Z,15.57
2023-03-22T09:17:45.520Z,15.69
2023-03-22T09:18:47.097Z,15.28
2023-03-22T09:19:48.899Z,15.53
2023-03-22T09:20:50.920Z,15.57
2023-03-22T09:21:52.492Z,15.42
2023-03-22T09:22:54.129Z,15.42
2023-03-22T09:23:56.303Z,15.40
2023-03-22T09:24:58.109Z,15.35
2023-03-22T09:26:05.782Z,15.37
2023-03-22T09:27:07.358Z,15.43
2023-03-22T09:28:10.396Z,15.27
2023-03-22T09:29:12.940Z,15.07
2023-03-22T09:30:14.890Z,15.21
2023-03-22T09:31:19.115Z,15.28
2023-03-22T09:32:21.842Z,15.26
2023-03-22T09:33:23.356Z,15.29
2023-03-22T09:34:24.909Z,15.51
2023-03-22T09:35:26.684Z,15.56
2023-03-22T09:36:28.276Z,15.66
2023-03-22T09:37:29.813Z,15.69
2023-03-22T09:38:31.394Z,15.90
2023-03-22T09:39:33.310Z,15.98
2023-03-22T09:40:38.044Z,15.85
2023-03-22T09:41:48.820Z,15.74
2023-03-22T09:42:54.359Z,15.77
2023-03-22T09:44:02.631Z,15.61
2023-03-22T09:45:10.514Z,15.54
2023-03-22T09:46:18.283Z,15.50
2023-03-22T09:47:44.469Z,15.66
2023-03-22T09:48:49.514Z,15.88
2023-03-22T09:50:03.208Z,15.85
2023-03-22T09:51:11.513Z,16.04
2023-03-22T09:52:16.874Z,16.22
2023-03-22T09:53:20.847Z,16.31
2023-03-22T09:54:38.387Z,16.26
2023-03-22T09:55:42.607Z,16.44
2023-03-22T09:56:51.389Z,16.47
2023-03-22T09:58:26.187Z,16.20
2023-03-22T09:59:55.556Z,16.38
2023-03-22T10:02:07.846Z,16.81
2023-03-22T10:03:29.391Z,17.05
2023-03-22T10:04:49.123Z,17.17
2023-03-22T10:06:02.351Z,17.40
2023-03-22T10:07:22.266Z,16.86
2023-03-22T10:08:29.757Z,16.52
2023-03-22T10:09:56.423Z,16.77
2023-03-22T10:10:59.680Z,16.32
2023-03-22T10:12:06.495Z,16.31
2023-03-22T10:13:21.401Z,16.79
2023-03-22T10:14:38.015Z,17.20
2023-03-22T10:15:46.765Z,17.02
2023-03-22T10:16:54.128Z,17.26
2023-03-22T10:17:58.986Z,17.58
2023-03-22T10:19:21.297Z,17.18
2023-03-22T10:20:22.815Z,17.12
2023-03-22T10:21:26.386Z,17.18
2023-03-22T10:22:36.692Z,17.40
2023-03-22T10:23:50.944Z,17.57
2023-03-22T10:24:54.603Z,17.63
2023-03-22T10:25:58.668Z,17.45
2023-03-22T10:27:00.323Z,17.65
2023-03-22T10:28:02.670Z,17.84
2023-03-22T10:29:15.192Z,18.08
2023-03-22T10:30:25.709Z,18.22
2023-03-22T10:31:27.321Z,18.30
2023-03-22T10:32:57.271Z,17.73
2023-03-22T10:34:07.666Z,17.77
2023-03-22T10:35:14.509Z,16.78
2023-03-22T10:36:19.607Z,16.65
2023-03-22T10:37:28.132Z,17.46
2023-03-22T10:38:31.549Z,17.75
2023-03-22T10:39:39.983Z,17.35
2023-03-22T10:40:42.736Z,17.17
2023-03-22T10:41:46.528Z,16.91
2023-03-22T10:43:03.359Z,17.03
2023-03-22T10:44:09.196Z,17.12
2023-03-22T10:45:15.738Z,16.86
2023-03-22T10:46:25.215Z,16.77
2023-03-22T10:47:34.052Z,16.75
2023-03-22T10:48:40.798Z,16.93
2023-03-22T10:49:47.603Z,16.85
2023-03-22T10:50:49.406Z,16.93
2023-03-22T10:51:57.974Z,16.90
2023-03-22T10:53:11.553Z,16.80
2023-03-22T10:54:15.705Z,16.94
2023-03-22T10:55:17.404Z,16.96
2023-03-22T10:56:20.465Z,16.43
2023-03-22T10:57:22.034Z,16.41
2023-03-22T10:58:30.298Z,16.50
2023-03-22T10:59:49.593Z,16.32
2023-03-22T11:00:57.690Z,16.07
2023-03-22T11:02:00.889Z,16.29
2023-03-22T11:03:02.584Z,16.48
2023-03-22T11:04:04.140Z,16.56
2023-03-22T11:05:06.369Z,16.50
2023-03-22T11:06:23.480Z,16.13
2023-03-22T11:07:31.077Z,16.39
2023-03-22T11:08:50.705Z,16.36
2023-03-22T11:10:09.951Z,16.45
2023-03-22T11:11:27.783Z,16.50
2023-03-22T11:12:29.439Z,16.73
2023-03-22T11:13:35.225Z,16.79
2023-03-22T11:14:43.796Z,16.50
2023-03-22T11:15:55.217Z,16.60
2023-03-22T11:17:08.716Z,16.31
2023-03-22T11:18:16.739Z,15.96
2023-03-22T11:19:33.374Z,15.91
2023-03-22T11:20:35.212Z,16.36
2023-03-22T11:21:36.892Z,16.34
2023-03-22T11:22:44.331Z,16.34
2023-03-22T11:23:55.462Z,16.13
2023-03-22T11:24:59.361Z,15.97
2023-03-22T11:27:32.438Z,16.31
2023-03-22T11:28:46.494Z,16.48
2023-03-22T11:29:53.697Z,16.60
2023-03-22T11:31:01.148Z,16.57
2023-03-22T11:32:02.846Z,16.49
2023-03-22T11:33:20.407Z,16.36
2023-03-22T11:34:25.482Z,16.24
2023-03-22T11:35:30.863Z,16.38
2023-03-22T11:36:44.543Z,16.22
2023-03-22T11:37:54.673Z,16.30
2023-03-22T11:39:05.933Z,16.26
2023-03-22T11:40:13.886Z,16.14
2023-03-22T11:41:28.199Z,16.03
2023-03-22T11:42:29.984Z,16.00
2023-03-22T11:43:41.687Z,16.17
2023-03-22T11:44:44.800Z,16.24
2023-03-22T11:45:50.496Z,16.14
2023-03-22T11:46:58.486Z,16.22
2023-03-22T11:48:13.256Z,16.30
2023-03-22T11:49:17.916Z,16.40
2023-03-22T11:50:32.461Z,16.44
2023-03-22T11:51:39.628Z,16.35
2023-03-22T11:52:48.152Z,16.29
2023-03-22T11:53:50.001Z,16.26
2023-03-22T11:54:53.684Z,16.39
2023-03-22T11:55:57.292Z,16.58
2023-03-22T11:57:03.281Z,16.49
2023-03-22T11:58:06.322Z,16.37
2023-03-22T11:59:14.717Z,16.47
2023-03-22T12:00:28.097Z,16.38
2023-03-22T12:01:43.150Z,16.46
2023-03-22T12:02:50.793Z,16.57
2023-03-22T12:03:56.687Z,16.62
2023-03-22T12:05:21.755Z,16.20
2023-03-22T12:06:28.974Z,16.18
2023-03-22T12:07:34.143Z,16.25
2023-03-22T12:08:45.950Z,16.42
2023-03-22T12:10:13.120Z,16.46
2023-03-22T12:11:40.314Z,16.37
2023-03-22T12:12:55.970Z,16.39
2023-03-22T12:14:16.364Z,16.31
2023-03-22T12:15:23.242Z,15.60
2023-03-22T12:16:31.913Z,15.73
2023-03-22T12:17:45.361Z,15.98
2023-03-22T12:19:20.686Z,16.03
2023-03-22T12:20:43.075Z,16.13
2023-03-22T12:21:48.654Z,16.00
2023-03-22T12:22:54.949Z,16.31
2023-03-22T12:24:01.203Z,16.44
2023-03-22T12:25:03.648Z,16.40
2023-03-22T12:26:14.384Z,16.57
2023-03-22T12:27:23.064Z,16.90
2023-03-22T12:28:33.570Z,16.99
2023-03-22T12:29:36.587Z,17.20
2023-03-22T12:30:45.883Z,17.34
2023-03-22T12:31:56.264Z,17.13
2023-03-22T12:33:17.857Z,17.14
2023-03-22T12:34:32.516Z,17.42
2023-03-22T12:35:39.063Z,17.24
2023-03-22T12:36:48.221Z,17.12
2023-03-22T12:37:55.604Z,17.20
2023-03-22T12:39:02.429Z,17.23
2023-03-22T12:40:15.806Z,17.30
2023-03-22T12:41:35.839Z,16.60
2023-03-22T12:43:06.305Z,16.66
2023-03-22T12:44:17.774Z,16.33
2023-03-22T12:45:25.365Z,16.66
2023-03-22T12:46:33.344Z,16.77
2023-03-22T12:47:46.659Z,17.45
2023-03-22T12:49:16.545Z,17.71
2023-03-22T12:50:28.920Z,17.81
2023-03-22T12:51:30.797Z,18.25
2023-03-22T12:52:51.637Z,18.27
2023-03-22T12:53:59.436Z,18.64
2023-03-22T12:55:03.368Z,18.48
2023-03-22T12:56:05.504Z,18.00
2023-03-22T12:57:08.706Z,18.05
2023-03-22T12:58:14.516Z,18.62
2023-03-22T12:59:26.378Z,18.23
2023-03-22T13:00:53.531Z,18.72
2023-03-22T13:02:18.500Z,18.67
2023-03-22T13:03:30.113Z,18.93
2023-03-22T13:04:45.619Z,18.74
2023-03-22T13:05:49.643Z,18.10
2023-03-22T13:06:51.161Z,18.23
2023-03-22T13:07:55.126Z,18.81
2023-03-22T13:09:11.668Z,18.87
2023-03-22T13:10:31.629Z,19.17
2023-03-22T13:11:33.239Z,18.90
2023-03-22T13:12:34.841Z,18.73
2023-03-22T13:13:45.118Z,18.35
2023-03-22T13:14:52.706Z,18.39
2023-03-22T13:15:59.819Z,18.31
2023-03-22T13:17:01.423Z,18.14
2023-03-22T13:18:03.075Z,17.98
2023-03-22T13:19:29.536Z,18.10
2023-03-22T13:20:34.094Z,18.10
2023-03-22T13:21:38.905Z,18.18
2023-03-22T13:22:40.524Z,17.83
2023-03-22T13:24:10.397Z,17.76
2023-03-22T13:25:14.558Z,17.87
2023-03-22T13:26:16.294Z,17.68
2023-03-22T13:27:18.037Z,17.40
2023-03-22T13:28:25.994Z,17.35
2023-03-22T13:29:37.620Z,17.31
2023-03-22T13:30:55.432Z,17.31
2023-03-22T13:32:03.355Z,17.24
2023-03-22T13:33:05.063Z,17.41
2023-03-22T13:34:15.903Z,17.23
2023-03-22T13:35:43.080Z,17.35
2023-03-22T13:36:56.647Z,17.39
2023-03-22T13:38:06.934Z,17.40
2023-03-22T13:39:10.741Z,17.18
2023-03-22T13:40:43.094Z,16.87
2023-03-22T13:41:49.006Z,16.85
2023-03-22T13:42:51.226Z,16.90
2023-03-22T13:43:59.360Z,16.83
2023-03-22T13:45:00.933Z,16.90
2023-03-22T13:46:17.910Z,16.82
2023-03-22T13:47:33.545Z,16.75
2023-03-22T13:48:52.057Z,16.84
2023-03-22T13:50:01.588Z,16.80
2023-03-22T13:51:17.067Z,16.88
2023-03-22T13:52:29.886Z,16.86
2023-03-22T13:53:35.881Z,16.86
2023-03-22T13:54:48.960Z,16.66
2023-03-22T13:55:50.462Z,16.49
2023-03-22T13:57:00.032Z,16.59
2023-03-22T13:58:02.863Z,16.71
2023-03-22T13:59:04.634Z,16.74
2023-03-22T14:00:34.029Z,16.51
2023-03-22T14:01:46.488Z,16.54
2023-03-22T14:02:50.098Z,16.53
2023-03-22T14:03:52.209Z,16.42
2023-03-22T14:05:01.560Z,16.44
2023-03-22T14:06:10.830Z,16.58
2023-03-22T14:07:22.239Z,16.58
2023-03-22T14:08:28.901Z,16.66
2023-03-22T14:09:33.576Z,16.59
2023-03-22T14:10:50.656Z,16.55
2023-03-22T14:12:00.509Z,16.59
2023-03-22T14:13:10.942Z,16.36
2023-03-22T14:14:36.365Z,16.38
2023-03-22T14:15:45.087Z,16.40
2023-03-22T14:16:55.337Z,16.36
2023-03-22T14:18:02.740Z,16.36
2023-03-22T14:19:07.984Z,16.14
2023-03-22T14:20:17.745Z,16.25
2023-03-22T14:21:30.047Z,16.03
